Time;durP1;ratioP1;P1;durP2;ratioP2;P2;SDS_P1;SDS_P2;PMS_P1;PMS_P2;Temp;Humidity;BMP_temperature;BMP_pressure;BME280_temperature;BME280_humidity;BME280_pressure;Samples;Min_cycle;Max_cycle;Signal;HPM_P1;HPM_P2
2021/10/04 00:01:09;;;;;;;2.17;0.82;;;;;;;13.58;88.83;100457.44;20973487;28;20509;-71
2021/10/04 00:11:11;;;;;;;1.92;0.60;;;;;;;13.59;89.09;100464.44;20990547;28;20058;-71
2021/10/04 00:21:13;;;;;;;4.15;0.77;;;;;;;13.45;88.75;100477.09;20989807;28;20318;-71
2021/10/04 00:31:16;;;;;;;3.78;0.85;;;;;;;13.38;88.80;100483.44;20986836;28;20048;-72
2021/10/04 00:41:19;;;;;;;3.20;0.90;;;;;;;13.27;88.62;100475.81;20987891;28;20490;-71
2021/10/04 00:51:21;;;;;;;5.32;0.80;;;;;;;13.17;90.05;100460.25;20986651;28;20040;-71
2021/10/04 01:01:28;;;;;;;3.05;0.90;;;;;;;13.09;90.80;100458.72;20983278;28;20063;-71
2021/10/04 01:11:31;;;;;;;2.45;1.00;;;;;;;13.11;90.90;100461.28;20985863;28;20124;-71
2021/10/04 01:21:33;;;;;;;2.90;0.90;;;;;;;13.20;91.26;100457.56;20987966;28;20049;-71
2021/10/04 01:31:35;;;;;;;2.35;0.80;;;;;;;13.14;91.36;100463.00;20989461;28;20174;-71
2021/10/04 01:41:37;;;;;;;3.72;1.00;;;;;;;13.16;91.34;100474.31;20998955;28;20052;-71
2021/10/04 01:51:39;;;;;;;2.78;0.85;;;;;;;13.08;92.03;100492.94;20986828;28;20056;-71
2021/10/04 02:01:41;;;;;;;2.90;0.80;;;;;;;13.04;91.68;100492.13;20982500;28;20379;-71
2021/10/04 02:11:43;;;;;;;3.38;1.00;;;;;;;12.96;91.94;100494.06;20994252;28;20052;-71
2021/10/04 02:21:45;;;;;;;2.13;0.80;;;;;;;12.90;92.08;100482.84;20999579;28;20044;-73
2021/10/04 02:31:47;;;;;;;2.03;0.90;;;;;;;12.88;92.38;100480.25;20996961;28;20052;-71
2021/10/04 02:41:49;;;;;;;2.35;0.70;;;;;;;12.82;92.24;100467.25;20997728;28;20146;-71
2021/10/04 02:51:50;;;;;;;2.67;1.02;;;;;;;12.83;92.02;100466.34;20997295;28;20044;-72
2021/10/04 03:01:52;;;;;;;3.22;0.93;;;;;;;12.75;92.10;100490.19;20994668;28;20098;-71
2021/10/04 03:11:54;;;;;;;3.03;1.08;;;;;;;12.73;93.00;100502.50;20995852;28;20049;-71
2021/10/04 03:21:56;;;;;;;2.10;0.73;;;;;;;12.71;92.74;100499.03;20994935;28;20040;-71
2021/10/04 03:31:58;;;;;;;3.10;1.05;;;;;;;12.59;92.65;100501.94;20994092;28;20071;-71
2021/10/04 03:42:00;;;;;;;2.20;0.80;;;;;;;12.61;92.11;100518.53;20993511;28;20075;-71
2021/10/04 03:52:02;;;;;;;3.13;0.80;;;;;;;12.45;91.91;100522.38;20992922;28;20045;-71
2021/10/04 04:02:04;;;;;;;2.65;0.77;;;;;;;12.44;92.01;100537.28;20991079;28;20109;-71
2021/10/04 04:12:06;;;;;;;2.88;0.80;;;;;;;12.41;92.51;100541.72;20991106;28;20044;-71
2021/10/04 04:22:08;;;;;;;2.58;0.60;;;;;;;12.38;92.46;100529.53;20990020;28;20040;-71
2021/10/04 04:32:11;;;;;;;2.17;0.85;;;;;;;12.26;92.44;100564.81;20988279;28;20045;-71
2021/10/04 04:42:12;;;;;;;2.78;0.80;;;;;;;12.26;91.92;100598.03;20990810;28;20651;-71
2021/10/04 04:52:14;;;;;;;3.42;0.75;;;;;;;12.38;92.08;100605.69;20970537;28;20474;-71
2021/10/04 05:02:16;;;;;;;3.60;0.93;;;;;;;12.36;92.43;100607.50;20986591;28;20052;-71
2021/10/04 05:12:18;;;;;;;3.03;1.13;;;;;;;12.34;92.67;100625.03;20987117;28;20055;-72
2021/10/04 05:22:20;;;;;;;4.07;1.30;;;;;;;12.30;93.41;100634.72;20983142;28;20044;-72
2021/10/04 05:32:22;;;;;;;3.70;1.40;;;;;;;12.32;93.27;100650.47;20984069;28;20525;-71
2021/10/04 05:42:32;;;;;;;5.80;1.45;;;;;;;12.32;93.63;100660.97;20984983;28;20052;-72
2021/10/04 05:52:33;;;;;;;4.68;2.13;;;;;;;12.32;93.94;100668.84;20982872;28;20044;-71
2021/10/04 06:02:35;;;;;;;6.57;2.80;;;;;;;12.36;93.92;100670.50;20965096;28;20067;-72
2021/10/04 06:12:39;;;;;;;5.95;2.83;;;;;;;12.32;93.70;100668.84;20983392;28;20434;-72
2021/10/04 06:22:41;;;;;;;6.13;2.72;;;;;;;12.36;94.01;100686.28;20982482;28;20075;-72
2021/10/04 06:32:43;;;;;;;5.38;2.70;;;;;;;12.43;94.54;100714.13;20983789;28;20040;-72
2021/10/04 06:42:46;;;;;;;5.65;3.00;;;;;;;12.45;94.32;100728.09;21000607;28;20049;-72
2021/10/04 06:52:48;;;;;;;5.90;3.30;;;;;;;12.48;94.16;100743.81;21025438;28;20041;-72
2021/10/04 07:02:52;;;;;;;7.05;2.83;;;;;;;12.50;93.96;100752.53;21071682;28;20048;-72
2021/10/04 07:12:54;;;;;;;5.05;2.22;;;;;;;12.61;94.43;100765.47;21038366;28;20052;-71
2021/10/04 07:22:58;;;;;;;4.63;2.10;;;;;;;12.70;93.71;100772.31;21043197;28;20049;-72
2021/10/04 07:33:01;;;;;;;4.80;2.00;;;;;;;12.73;94.12;100769.63;20994459;28;20090;-72
2021/10/04 07:43:03;;;;;;;4.60;2.10;;;;;;;12.82;94.13;100782.59;21056941;28;20051;-71
2021/10/04 07:53:05;;;;;;;5.97;2.10;;;;;;;12.89;93.11;100793.84;21015438;28;20135;-71
2021/10/04 08:03:06;;;;;;;3.63;1.55;;;;;;;13.04;93.15;100781.28;20992104;28;20044;-71
2021/10/04 08:13:09;;;;;;;4.25;1.40;;;;;;;13.13;92.28;100800.38;21020473;28;20051;-71
2021/10/04 08:23:13;;;;;;;3.17;1.23;;;;;;;13.21;92.30;100793.22;21075230;28;20052;-71
2021/10/04 08:33:15;;;;;;;2.78;1.15;;;;;;;13.23;91.77;100802.00;21073988;28;20052;-71
2021/10/04 08:43:16;;;;;;;2.78;1.20;;;;;;;13.25;90.95;100815.97;21073611;28;20105;-71
2021/10/04 08:53:18;;;;;;;2.10;1.30;;;;;;;13.21;91.37;100830.03;21072671;28;20557;-71
2021/10/04 09:03:20;;;;;;;3.08;1.63;;;;;;;13.32;91.76;100822.84;21071494;28;20048;-71
2021/10/04 09:13:22;;;;;;;2.00;1.00;;;;;;;13.65;89.32;100815.13;21023584;28;20114;-71
2021/10/04 09:23:36;;;;;;;3.63;1.33;;;;;;;13.58;90.02;100815.25;20984461;28;20067;-71
2021/10/04 09:34:16;;;;;;;2.63;1.30;;;;;;;13.67;90.80;100831.75;20987028;28;20053;-72
2021/10/04 09:44:17;;;;;;;2.90;1.30;;;;;;;13.80;90.53;100826.19;20987162;28;20044;-72
2021/10/04 09:54:20;;;;;;;3.20;1.05;;;;;;;14.02;89.84;100813.41;20988310;28;20052;-73
2021/10/04 10:04:21;;;;;;;2.55;0.90;;;;;;;14.11;88.84;100820.22;20985347;28;20456;-73
2021/10/04 10:14:23;;;;;;;2.75;1.00;;;;;;;14.04;88.21;100816.88;21025202;28;20402;-73
2021/10/04 10:24:31;;;;;;;2.08;0.82;;;;;;;14.57;86.67;100791.00;21069502;28;20402;-72
2021/10/04 10:34:36;;;;;;;1.75;0.60;;;;;;;14.97;84.73;100784.66;21064110;28;20059;-73
2021/10/04 10:44:56;;;;;;;1.58;0.73;;;;;;;14.93;82.83;100793.56;21066446;28;20051;-73
2021/10/04 10:54:59;;;;;;;2.30;0.95;;;;;;;14.46;85.68;100793.00;21025581;28;20052;-74
2021/10/04 11:05:01;;;;;;;1.52;0.60;;;;;;;14.56;85.20;100785.75;20915652;28;20053;-74
2021/10/04 11:15:04;;;;;;;0.90;0.50;;;;;;;14.71;86.06;100780.13;21004530;28;20502;-74
2021/10/04 11:25:06;;;;;;;1.70;0.70;;;;;;;14.54;84.80;100783.19;20974762;28;20072;-74
2021/10/04 11:35:15;;;;;;;2.65;1.20;;;;;;;14.72;85.71;100778.34;20970687;28;20079;-74
2021/10/04 11:45:16;;;;;;;2.15;0.77;;;;;;;14.97;84.03;100787.31;21004439;28;20102;-74
2021/10/04 11:55:20;;;;;;;1.63;0.98;;;;;;;14.98;84.46;100794.31;21004302;28;20132;-74
2021/10/04 12:05:31;;;;;;;3.47;0.80;;;;;;;14.92;85.05;100789.22;20993403;28;20070;-74
2021/10/04 12:15:33;;;;;;;1.63;0.70;;;;;;;14.78;85.35;100773.75;20993262;28;20048;-74
2021/10/04 12:25:35;;;;;;;2.80;0.73;;;;;;;14.92;84.48;100772.53;20993551;28;20048;-74
2021/10/04 12:35:36;;;;;;;3.22;0.80;;;;;;;15.20;83.30;100756.78;20991353;28;20048;-74
2021/10/04 12:45:51;;;;;;;1.20;0.50;;;;;;;15.14;83.46;100757.84;20972902;28;20509;-73
2021/10/04 12:55:59;;;;;;;2.00;0.83;;;;;;;15.11;83.88;100742.09;20989039;28;20498;-72
2021/10/04 13:06:01;;;;;;;1.45;0.70;;;;;;;15.41;83.52;100735.03;20989479;28;20442;-73
2021/10/04 13:16:09;;;;;;;1.90;0.90;;;;;;;15.35;83.16;100720.25;21023012;28;20044;-73
2021/10/04 13:26:13;;;;;;;6.97;3.38;;;;;;;15.36;82.34;100721.97;21071321;28;20056;-74
2021/10/04 13:36:16;;;;;;;2.77;0.80;;;;;;;15.44;83.11;100713.84;21070793;28;20047;-74
2021/10/04 13:46:19;;;;;;;4.50;2.60;;;;;;;15.68;82.49;100698.19;21070205;28;20071;-73
2021/10/04 13:56:22;;;;;;;1.95;1.20;;;;;;;15.75;81.47;100695.28;21073028;28;20503;-75
2021/10/04 14:06:24;;;;;;;6.20;2.88;;;;;;;15.44;82.10;100698.00;21078818;28;20044;-75
2021/10/04 14:16:26;;;;;;;4.07;2.17;;;;;;;15.76;80.80;100680.28;21031617;28;20048;-75
2021/10/04 14:26:28;;;;;;;5.28;3.00;;;;;;;15.63;81.65;100679.81;21001611;28;20413;-74
2021/10/04 14:36:30;;;;;;;2.53;1.40;;;;;;;15.52;81.95;100674.00;20999661;28;20105;-74
2021/10/04 14:46:32;;;;;;;2.63;1.10;;;;;;;15.26;82.83;100680.97;20999277;28;20102;-72
2021/10/04 14:56:34;;;;;;;1.83;1.02;;;;;;;15.42;81.87;100668.16;20998448;28;20481;-72
2021/10/04 15:06:36;;;;;;;5.78;3.38;;;;;;;15.53;80.29;100662.56;20997488;28;20621;-73
2021/10/04 15:16:38;;;;;;;5.38;2.60;;;;;;;15.38;79.25;100677.09;21054338;28;20547;-73
2021/10/04 15:26:40;;;;;;;12.50;6.20;;;;;;;15.14;80.76;100670.78;21079801;28;20526;-73
2021/10/04 15:36:42;;;;;;;3.53;1.52;;;;;;;15.12;81.30;100640.94;21079467;28;20497;-74
2021/10/04 15:46:44;;;;;;;3.50;1.10;;;;;;;15.17;81.84;100640.81;21061275;28;20644;-73
2021/10/04 15:56:46;;;;;;;1.95;1.00;;;;;;;14.98;82.49;100646.63;21077811;28;20044;-73
2021/10/04 16:06:48;;;;;;;1.80;1.00;;;;;;;14.87;83.99;100649.59;21076688;28;20040;-73
2021/10/04 16:16:50;;;;;;;3.70;1.60;;;;;;;14.85;83.56;100640.88;21017728;28;20044;-73
2021/10/04 16:26:53;;;;;;;2.70;1.40;;;;;;;14.78;83.98;100641.09;20994892;28;20102;-70
2021/10/04 16:36:54;;;;;;;4.75;1.60;;;;;;;14.66;83.33;100625.63;21002048;28;20105;-72
2021/10/04 16:46:57;;;;;;;3.78;2.30;;;;;;;14.32;85.49;100609.00;20995930;28;20101;-72
2021/10/04 16:56:59;;;;;;;3.55;1.88;;;;;;;14.24;85.15;100589.03;20983799;28;20411;-72
2021/10/04 17:07:01;;;;;;;4.93;2.50;;;;;;;13.97;85.55;100588.88;20987585;28;20040;-72
2021/10/04 17:17:02;;;;;;;6.07;2.92;;;;;;;14.01;86.95;100590.53;20988100;28;20056;-72
2021/10/04 17:27:04;;;;;;;6.72;3.05;;;;;;;13.91;86.88;100583.78;20986868;28;20489;-72
2021/10/04 17:37:06;;;;;;;9.75;6.40;;;;;;;13.90;87.61;100589.94;20986315;28;20067;-72
2021/10/04 17:47:08;;;;;;;7.53;3.22;;;;;;;13.78;89.62;100585.84;20985565;28;20059;-72
2021/10/04 17:57:11;;;;;;;7.57;4.57;;;;;;;13.67;89.65;100584.41;20985570;28;20102;-72
2021/10/04 18:07:12;;;;;;;6.70;3.55;;;;;;;13.57;90.00;100573.25;20984148;28;20059;-72
2021/10/04 18:17:15;;;;;;;8.40;4.93;;;;;;;13.63;90.41;100574.88;21047865;28;20452;-72
2021/10/04 18:27:17;;;;;;;6.03;3.08;;;;;;;13.66;89.06;100572.16;21068910;28;20537;-72
2021/10/04 18:37:22;;;;;;;6.75;3.33;;;;;;;13.53;90.07;100574.25;21067214;28;20044;-72
2021/10/04 18:47:24;;;;;;;5.97;3.20;;;;;;;13.55;90.63;100573.28;21067984;28;20394;-72
2021/10/04 18:57:26;;;;;;;7.88;4.90;;;;;;;13.52;90.08;100567.25;21082276;28;20120;-72
2021/10/04 19:07:29;;;;;;;5.55;3.35;;;;;;;13.35;90.64;100560.63;21081979;28;20048;-72
2021/10/04 19:17:31;;;;;;;6.07;3.33;;;;;;;13.33;91.09;100543.16;21016915;28;20048;-72
2021/10/04 19:27:36;;;;;;;6.70;3.92;;;;;;;13.29;90.55;100562.56;20998180;28;20048;-72
2021/10/04 19:37:39;;;;;;;6.63;4.00;;;;;;;13.26;90.73;100533.69;20978280;28;20091;-75
2021/10/04 19:47:43;;;;;;;7.70;4.70;;;;;;;13.19;91.21;100554.00;20993624;28;20041;-72
2021/10/04 19:57:45;;;;;;;7.88;4.00;;;;;;;13.08;92.34;100527.09;20993349;28;20106;-72
2021/10/04 20:07:47;;;;;;;5.95;3.65;;;;;;;12.97;92.54;100527.34;20972122;28;20449;-72
2021/10/04 20:17:49;;;;;;;4.97;2.63;;;;;;;12.93;92.50;100519.56;21053296;28;20044;-71
2021/10/04 20:27:51;;;;;;;6.38;3.47;;;;;;;12.82;92.73;100506.69;21075555;28;20070;-72
2021/10/04 20:37:53;;;;;;;6.32;3.97;;;;;;;12.81;92.87;100516.31;21074413;28;20048;-72
2021/10/04 20:47:55;;;;;;;7.68;3.53;;;;;;;12.87;93.60;100510.06;21037294;28;20045;-71
2021/10/04 20:57:57;;;;;;;6.07;3.78;;;;;;;12.91;93.11;100516.97;20982635;28;20098;-72
2021/10/04 21:07:59;;;;;;;9.40;4.65;;;;;;;12.94;92.75;100508.16;20991069;28;20048;-74
2021/10/04 21:18:01;;;;;;;5.72;4.03;;;;;;;12.81;92.35;100468.16;21070433;28;20040;-74
2021/10/04 21:28:03;;;;;;;6.70;3.47;;;;;;;12.62;93.60;100445.84;20952217;22;20053;-82
2021/10/04 21:38:12;;;;;;;8.85;4.68;;;;;;;12.58;94.31;100451.16;20944589;28;20105;-81
2021/10/04 21:48:14;;;;;;;10.35;4.47;;;;;;;12.66;93.82;100455.41;20914895;28;20049;-81
2021/10/04 21:58:16;;;;;;;7.13;4.80;;;;;;;12.77;94.02;100458.63;20907484;28;20312;-80
2021/10/04 22:18:38;;;;;;;8.30;4.93;;;;;;;12.49;94.56;100406.72;20984805;28;20383;-74
2021/10/04 22:28:41;;;;;;;8.82;5.40;;;;;;;12.48;94.92;100407.63;20994225;28;20463;-74
2021/10/04 22:38:48;;;;;;;8.93;6.25;;;;;;;12.44;95.11;100411.22;20999848;28;20048;-75
2021/10/04 22:48:52;;;;;;;10.25;6.70;;;;;;;12.29;95.79;100401.09;20999165;28;20049;-75
2021/10/04 22:58:54;;;;;;;10.98;6.60;;;;;;;12.36;94.88;100384.31;20997941;28;20197;-74
2021/10/04 23:08:57;;;;;;;9.88;7.32;;;;;;;12.37;94.87;100367.66;20997035;28;20178;-74
2021/10/04 23:18:59;;;;;;;15.02;7.15;;;;;;;12.39;94.90;100373.72;20996965;28;20049;-76
2021/10/04 23:29:01;;;;;;;13.50;7.25;;;;;;;12.30;95.15;100366.91;20996610;28;20049;-75
2021/10/04 23:39:04;;;;;;;10.68;7.93;;;;;;;12.29;94.99;100364.34;20995512;28;20052;-76
2021/10/04 23:49:05;;;;;;;12.00;8.13;;;;;;;12.33;95.09;100355.50;20997215;28;20052;-75
2021/10/04 23:59:07;;;;;;;11.60;8.65;;;;;;;12.41;95.22;100343.06;20997292;28;20048;-75
